sensor_id;sensor_type;location;lat;lon;timestamp;P1;durP1;ratioP1;P2;durP2;ratioP2
56653;SDS011;45096;52.302;4.634;2024-02-26T00:00:31;5.53;;;4.32;;
56653;SDS011;45096;52.302;4.634;2024-02-26T00:02:56;5.00;;;4.32;;
56653;SDS011;45096;52.302;4.634;2024-02-26T00:05:21;3.90;;;3.63;;
56653;SDS011;45096;52.302;4.634;2024-02-26T00:07:47;5.90;;;5.32;;
56653;SDS011;45096;52.302;4.634;2024-02-26T00:10:13;6.43;;;5.30;;
56653;SDS011;45096;52.302;4.634;2024-02-26T00:12:39;5.82;;;5.32;;
56653;SDS011;45096;52.302;4.634;2024-02-26T00:15:05;7.30;;;5.10;;
56653;SDS011;45096;52.302;4.634;2024-02-26T00:17:30;5.45;;;4.90;;
56653;SDS011;45096;52.302;4.634;2024-02-26T00:19:56;5.35;;;4.85;;
56653;SDS011;45096;52.302;4.634;2024-02-26T00:22:21;7.35;;;6.28;;
56653;SDS011;45096;52.302;4.634;2024-02-26T00:24:46;5.32;;;4.82;;
56653;SDS011;45096;52.302;4.634;2024-02-26T00:27:13;6.32;;;5.80;;
56653;SDS011;45096;52.302;4.634;2024-02-26T00:29:38;7.40;;;5.57;;
56653;SDS011;45096;52.302;4.634;2024-02-26T00:32:04;7.03;;;6.32;;
56653;SDS011;45096;52.302;4.634;2024-02-26T00:34:30;6.05;;;5.38;;
56653;SDS011;45096;52.302;4.634;2024-02-26T00:36:56;8.30;;;6.25;;
56653;SDS011;45096;52.302;4.634;2024-02-26T00:39:21;6.95;;;6.25;;
56653;SDS011;45096;52.302;4.634;2024-02-26T00:41:46;7.15;;;6.55;;
56653;SDS011;45096;52.302;4.634;2024-02-26T00:44:13;7.93;;;6.13;;
56653;SDS011;45096;52.302;4.634;2024-02-26T00:46:39;6.53;;;5.90;;
56653;SDS011;45096;52.302;4.634;2024-02-26T00:49:04;10.93;;;7.10;;
56653;SDS011;45096;52.302;4.634;2024-02-26T00:51:30;6.90;;;6.20;;
56653;SDS011;45096;52.302;4.634;2024-02-26T00:53:55;7.60;;;5.80;;
56653;SDS011;45096;52.302;4.634;2024-02-26T00:56:21;8.07;;;6.35;;
56653;SDS011;45096;52.302;4.634;2024-02-26T00:58:46;10.15;;;6.72;;
56653;SDS011;45096;52.302;4.634;2024-02-26T01:01:13;6.47;;;5.88;;
56653;SDS011;45096;52.302;4.634;2024-02-26T01:03:39;6.95;;;6.00;;
56653;SDS011;45096;52.302;4.634;2024-02-26T01:06:04;7.90;;;6.57;;
56653;SDS011;45096;52.302;4.634;2024-02-26T01:08:29;6.90;;;5.90;;
56653;SDS011;45096;52.302;4.634;2024-02-26T01:10:55;7.97;;;5.93;;
56653;SDS011;45096;52.302;4.634;2024-02-26T01:13:20;7.43;;;5.85;;
56653;SDS011;45096;52.302;4.634;2024-02-26T01:15:46;7.57;;;6.72;;
56653;SDS011;45096;52.302;4.634;2024-02-26T01:18:13;6.70;;;5.80;;
56653;SDS011;45096;52.302;4.634;2024-02-26T01:20:38;6.15;;;5.55;;
56653;SDS011;45096;52.302;4.634;2024-02-26T01:23:03;6.88;;;5.85;;
56653;SDS011;45096;52.302;4.634;2024-02-26T01:25:29;9.48;;;6.32;;
56653;SDS011;45096;52.302;4.634;2024-02-26T01:27:54;6.53;;;5.82;;
56653;SDS011;45096;52.302;4.634;2024-02-26T01:30:20;6.28;;;5.68;;
56653;SDS011;45096;52.302;4.634;2024-02-26T01:32:45;6.82;;;6.13;;
56653;SDS011;45096;52.302;4.634;2024-02-26T01:35:12;6.65;;;5.93;;
56653;SDS011;45096;52.302;4.634;2024-02-26T01:37:37;8.43;;;6.47;;
56653;SDS011;45096;52.302;4.634;2024-02-26T01:40:03;8.20;;;6.20;;
56653;SDS011;45096;52.302;4.634;2024-02-26T01:42:29;5.93;;;5.35;;
56653;SDS011;45096;52.302;4.634;2024-02-26T01:44:54;6.65;;;6.05;;
56653;SDS011;45096;52.302;4.634;2024-02-26T01:47:20;7.10;;;5.47;;
56653;SDS011;45096;52.302;4.634;2024-02-26T01:49:45;5.93;;;5.15;;
56653;SDS011;45096;52.302;4.634;2024-02-26T01:52:12;6.20;;;5.28;;
56653;SDS011;45096;52.302;4.634;2024-02-26T01:54:37;5.70;;;5.10;;
56653;SDS011;45096;52.302;4.634;2024-02-26T01:57:04;6.55;;;5.18;;
56653;SDS011;45096;52.302;4.634;2024-02-26T01:59:30;6.68;;;5.55;;
56653;SDS011;45096;52.302;4.634;2024-02-26T02:01:57;8.25;;;5.55;;
56653;SDS011;45096;52.302;4.634;2024-02-26T02:04:24;6.72;;;5.55;;
56653;SDS011;45096;52.302;4.634;2024-02-26T02:06:49;5.13;;;4.63;;
56653;SDS011;45096;52.302;4.634;2024-02-26T02:09:16;6.32;;;5.38;;
56653;SDS011;45096;52.302;4.634;2024-02-26T02:11:43;6.60;;;6.00;;
56653;SDS011;45096;52.302;4.634;2024-02-26T02:14:08;6.00;;;5.40;;
56653;SDS011;45096;52.302;4.634;2024-02-26T02:16:33;7.65;;;6.28;;
56653;SDS011;45096;52.302;4.634;2024-02-26T02:18:59;6.53;;;5.82;;
56653;SDS011;45096;52.302;4.634;2024-02-26T02:21:26;8.77;;;6.53;;
56653;SDS011;45096;52.302;4.634;2024-02-26T02:23:51;9.32;;;6.95;;
56653;SDS011;45096;52.302;4.634;2024-02-26T02:26:17;7.72;;;6.93;;
56653;SDS011;45096;52.302;4.634;2024-02-26T02:28:42;10.63;;;6.93;;
56653;SDS011;45096;52.302;4.634;2024-02-26T02:31:08;8.68;;;6.68;;
56653;SDS011;45096;52.302;4.634;2024-02-26T02:33:34;8.15;;;6.35;;
56653;SDS011;45096;52.302;4.634;2024-02-26T02:35:59;9.93;;;7.93;;
56653;SDS011;45096;52.302;4.634;2024-02-26T02:38:26;7.38;;;6.03;;
56653;SDS011;45096;52.302;4.634;2024-02-26T02:40:52;8.35;;;7.30;;
56653;SDS011;45096;52.302;4.634;2024-02-26T02:43:17;9.93;;;6.68;;
56653;SDS011;45096;52.302;4.634;2024-02-26T02:45:42;9.10;;;7.53;;
56653;SDS011;45096;52.302;4.634;2024-02-26T02:48:08;10.75;;;8.00;;
56653;SDS011;45096;52.302;4.634;2024-02-26T02:50:33;10.20;;;7.55;;
56653;SDS011;45096;52.302;4.634;2024-02-26T02:52:59;9.45;;;7.93;;
56653;SDS011;45096;52.302;4.634;2024-02-26T02:55:26;10.38;;;8.13;;
56653;SDS011;45096;52.302;4.634;2024-02-26T02:57:52;12.10;;;8.88;;
56653;SDS011;45096;52.302;4.634;2024-02-26T03:00:17;10.40;;;7.85;;
56653;SDS011;45096;52.302;4.634;2024-02-26T03:02:43;10.15;;;8.02;;
56653;SDS011;45096;52.302;4.634;2024-02-26T03:05:08;10.38;;;8.32;;
56653;SDS011;45096;52.302;4.634;2024-02-26T03:07:34;10.85;;;7.60;;
56653;SDS011;45096;52.302;4.634;2024-02-26T03:09:59;13.75;;;9.38;;
56653;SDS011;45096;52.302;4.634;2024-02-26T03:12:26;13.20;;;8.80;;
56653;SDS011;45096;52.302;4.634;2024-02-26T03:14:51;11.80;;;7.72;;
56653;SDS011;45096;52.302;4.634;2024-02-26T03:17:17;10.20;;;7.82;;
56653;SDS011;45096;52.302;4.634;2024-02-26T03:19:43;10.40;;;8.38;;
56653;SDS011;45096;52.302;4.634;2024-02-26T03:22:08;12.73;;;8.68;;
56653;SDS011;45096;52.302;4.634;2024-02-26T03:24:34;13.18;;;8.00;;
56653;SDS011;45096;52.302;4.634;2024-02-26T03:26:59;11.85;;;9.10;;
56653;SDS011;45096;52.302;4.634;2024-02-26T03:29:26;12.13;;;9.77;;
56653;SDS011;45096;52.302;4.634;2024-02-26T03:31:51;11.88;;;9.45;;
56653;SDS011;45096;52.302;4.634;2024-02-26T03:34:17;11.82;;;8.38;;
56653;SDS011;45096;52.302;4.634;2024-02-26T03:36:42;11.70;;;8.73;;
56653;SDS011;45096;52.302;4.634;2024-02-26T03:39:08;13.05;;;8.95;;
56653;SDS011;45096;52.302;4.634;2024-02-26T03:41:33;11.88;;;8.85;;
56653;SDS011;45096;52.302;4.634;2024-02-26T03:43:59;11.25;;;8.00;;
56653;SDS011;45096;52.302;4.634;2024-02-26T03:46:25;15.15;;;9.55;;
56653;SDS011;45096;52.302;4.634;2024-02-26T03:48:51;13.32;;;8.82;;
56653;SDS011;45096;52.302;4.634;2024-02-26T03:51:16;12.18;;;8.88;;
56653;SDS011;45096;52.302;4.634;2024-02-26T03:53:42;12.48;;;8.55;;
56653;SDS011;45096;52.302;4.634;2024-02-26T03:56:07;13.75;;;9.50;;
56653;SDS011;45096;52.302;4.634;2024-02-26T03:58:33;13.23;;;9.52;;
56653;SDS011;45096;52.302;4.634;2024-02-26T04:00:58;13.80;;;10.77;;
56653;SDS011;45096;52.302;4.634;2024-02-26T04:03:25;13.90;;;10.48;;
56653;SDS011;45096;52.302;4.634;2024-02-26T04:05:51;13.57;;;9.57;;
56653;SDS011;45096;52.302;4.634;2024-02-26T04:08:16;12.18;;;8.90;;
56653;SDS011;45096;52.302;4.634;2024-02-26T04:10:41;12.77;;;9.35;;
56653;SDS011;45096;52.302;4.634;2024-02-26T04:13:07;13.65;;;9.75;;
56653;SDS011;45096;52.302;4.634;2024-02-26T04:15:32;12.95;;;9.38;;
56653;SDS011;45096;52.302;4.634;2024-02-26T04:17:58;12.52;;;8.98;;
56653;SDS011;45096;52.302;4.634;2024-02-26T04:20:25;13.52;;;9.70;;
56653;SDS011;45096;52.302;4.634;2024-02-26T04:22:50;12.82;;;9.75;;
56653;SDS011;45096;52.302;4.634;2024-02-26T04:25:16;16.80;;;10.25;;
56653;SDS011;45096;52.302;4.634;2024-02-26T04:27:41;14.15;;;9.90;;
56653;SDS011;45096;52.302;4.634;2024-02-26T04:30:07;13.10;;;9.40;;
56653;SDS011;45096;52.302;4.634;2024-02-26T04:32:33;13.75;;;9.07;;
56653;SDS011;45096;52.302;4.634;2024-02-26T04:34:58;14.23;;;9.48;;
56653;SDS011;45096;52.302;4.634;2024-02-26T04:37:25;15.15;;;9.50;;
56653;SDS011;45096;52.302;4.634;2024-02-26T04:39:50;12.68;;;9.70;;
56653;SDS011;45096;52.302;4.634;2024-02-26T04:42:16;14.90;;;9.55;;
56653;SDS011;45096;52.302;4.634;2024-02-26T04:44:41;16.30;;;10.70;;
56653;SDS011;45096;52.302;4.634;2024-02-26T04:47:07;15.13;;;10.32;;
56653;SDS011;45096;52.302;4.634;2024-02-26T04:49:32;14.20;;;9.82;;
56653;SDS011;45096;52.302;4.634;2024-02-26T04:51:58;17.00;;;10.98;;
56653;SDS011;45096;52.302;4.634;2024-02-26T04:54:24;17.98;;;11.30;;
56653;SDS011;45096;52.302;4.634;2024-02-26T04:56:50;20.77;;;11.88;;
56653;SDS011;45096;52.302;4.634;2024-02-26T04:59:15;14.65;;;9.95;;
56653;SDS011;45096;52.302;4.634;2024-02-26T05:01:40;18.38;;;11.50;;
56653;SDS011;45096;52.302;4.634;2024-02-26T05:04:06;17.10;;;10.73;;
56653;SDS011;45096;52.302;4.634;2024-02-26T05:06:31;16.52;;;11.35;;
56653;SDS011;45096;52.302;4.634;2024-02-26T05:08:57;15.93;;;10.00;;
56653;SDS011;45096;52.302;4.634;2024-02-26T05:11:24;16.70;;;11.10;;
56653;SDS011;45096;52.302;4.634;2024-02-26T05:13:49;20.75;;;12.40;;
56653;SDS011;45096;52.302;4.634;2024-02-26T05:16:14;18.35;;;11.48;;
56653;SDS011;45096;52.302;4.634;2024-02-26T05:18:40;18.63;;;12.20;;
56653;SDS011;45096;52.302;4.634;2024-02-26T05:21:05;18.40;;;11.52;;
56653;SDS011;45096;52.302;4.634;2024-02-26T05:23:31;20.25;;;12.13;;
56653;SDS011;45096;52.302;4.634;2024-02-26T05:25:56;21.15;;;13.07;;
56653;SDS011;45096;52.302;4.634;2024-02-26T05:28:23;19.90;;;12.60;;
56653;SDS011;45096;52.302;4.634;2024-02-26T05:30:48;18.85;;;12.18;;
56653;SDS011;45096;52.302;4.634;2024-02-26T05:33:14;20.10;;;13.10;;
56653;SDS011;45096;52.302;4.634;2024-02-26T05:35:40;21.00;;;13.02;;
56653;SDS011;45096;52.302;4.634;2024-02-26T05:38:05;16.73;;;10.75;;
56653;SDS011;45096;52.302;4.634;2024-02-26T05:40:31;19.75;;;11.73;;
56653;SDS011;45096;52.302;4.634;2024-02-26T05:42:56;18.25;;;12.88;;
56653;SDS011;45096;52.302;4.634;2024-02-26T05:45:23;18.73;;;12.25;;
56653;SDS011;45096;52.302;4.634;2024-02-26T05:47:48;19.55;;;12.80;;
56653;SDS011;45096;52.302;4.634;2024-02-26T05:50:13;17.45;;;12.50;;
56653;SDS011;45096;52.302;4.634;2024-02-26T05:52:39;19.17;;;12.73;;
56653;SDS011;45096;52.302;4.634;2024-02-26T05:55:05;20.25;;;12.88;;
56653;SDS011;45096;52.302;4.634;2024-02-26T05:57:31;18.02;;;12.30;;
56653;SDS011;45096;52.302;4.634;2024-02-26T05:59:57;19.98;;;12.90;;
56653;SDS011;45096;52.302;4.634;2024-02-26T06:02:23;19.85;;;12.30;;
56653;SDS011;45096;52.302;4.634;2024-02-26T06:04:49;16.90;;;11.82;;
56653;SDS011;45096;52.302;4.634;2024-02-26T06:07:14;18.38;;;12.63;;
56653;SDS011;45096;52.302;4.634;2024-02-26T06:09:40;17.48;;;11.35;;
56653;SDS011;45096;52.302;4.634;2024-02-26T06:12:05;14.90;;;10.57;;
56653;SDS011;45096;52.302;4.634;2024-02-26T06:14:31;18.45;;;12.57;;
56653;SDS011;45096;52.302;4.634;2024-02-26T06:16:57;15.50;;;10.80;;
56653;SDS011;45096;52.302;4.634;2024-02-26T06:19:24;16.02;;;11.48;;
56653;SDS011;45096;52.302;4.634;2024-02-26T06:21:49;16.30;;;10.38;;
56653;SDS011;45096;52.302;4.634;2024-02-26T06:24:14;15.25;;;10.68;;
56653;SDS011;45096;52.302;4.634;2024-02-26T06:26:40;14.27;;;10.52;;
56653;SDS011;45096;52.302;4.634;2024-02-26T06:29:05;13.82;;;10.55;;
56653;SDS011;45096;52.302;4.634;2024-02-26T06:31:31;14.07;;;10.07;;
56653;SDS011;45096;52.302;4.634;2024-02-26T06:33:56;14.30;;;10.13;;
56653;SDS011;45096;52.302;4.634;2024-02-26T06:36:23;15.47;;;11.80;;
56653;SDS011;45096;52.302;4.634;2024-02-26T06:38:48;12.85;;;10.00;;
56653;SDS011;45096;52.302;4.634;2024-02-26T06:41:14;15.02;;;9.65;;
56653;SDS011;45096;52.302;4.634;2024-02-26T06:43:39;12.45;;;9.43;;
56653;SDS011;45096;52.302;4.634;2024-02-26T06:46:05;13.13;;;9.00;;
56653;SDS011;45096;52.302;4.634;2024-02-26T06:48:31;10.50;;;8.48;;
56653;SDS011;45096;52.302;4.634;2024-02-26T06:50:56;12.48;;;9.68;;
56653;SDS011;45096;52.302;4.634;2024-02-26T06:53:23;10.70;;;8.48;;
56653;SDS011;45096;52.302;4.634;2024-02-26T06:55:48;10.05;;;8.30;;
56653;SDS011;45096;52.302;4.634;2024-02-26T06:58:14;12.57;;;8.25;;
56653;SDS011;45096;52.302;4.634;2024-02-26T07:00:39;10.32;;;7.47;;
56653;SDS011;45096;52.302;4.634;2024-02-26T07:03:04;9.52;;;7.70;;
56653;SDS011;45096;52.302;4.634;2024-02-26T07:05:30;11.05;;;7.35;;
56653;SDS011;45096;52.302;4.634;2024-02-26T07:07:56;10.15;;;7.65;;
56653;SDS011;45096;52.302;4.634;2024-02-26T07:10:22;8.77;;;6.63;;
56653;SDS011;45096;52.302;4.634;2024-02-26T07:12:48;8.43;;;6.93;;
56653;SDS011;45096;52.302;4.634;2024-02-26T07:15:13;9.98;;;7.15;;
56653;SDS011;45096;52.302;4.634;2024-02-26T07:17:39;8.27;;;6.07;;
56653;SDS011;45096;52.302;4.634;2024-02-26T07:20:04;10.23;;;6.55;;
56653;SDS011;45096;52.302;4.634;2024-02-26T07:22:30;7.00;;;5.60;;
56653;SDS011;45096;52.302;4.634;2024-02-26T07:24:56;7.22;;;6.03;;
56653;SDS011;45096;52.302;4.634;2024-02-26T07:27:23;7.43;;;5.78;;
56653;SDS011;45096;52.302;4.634;2024-02-26T07:29:48;8.13;;;6.03;;
56653;SDS011;45096;52.302;4.634;2024-02-26T07:32:14;8.25;;;5.70;;
56653;SDS011;45096;52.302;4.634;2024-02-26T07:34:39;6.65;;;5.90;;
56653;SDS011;45096;52.302;4.634;2024-02-26T07:37:04;7.65;;;5.82;;
56653;SDS011;45096;52.302;4.634;2024-02-26T07:39:30;6.90;;;5.60;;
56653;SDS011;45096;52.302;4.634;2024-02-26T07:41:55;6.13;;;5.20;;
56653;SDS011;45096;52.302;4.634;2024-02-26T07:44:22;5.85;;;4.55;;
56653;SDS011;45096;52.302;4.634;2024-02-26T07:46:47;6.68;;;4.85;;
56653;SDS011;45096;52.302;4.634;2024-02-26T07:49:13;6.28;;;4.68;;
56653;SDS011;45096;52.302;4.634;2024-02-26T07:51:38;5.53;;;4.75;;
56653;SDS011;45096;52.302;4.634;2024-02-26T07:54:04;10.02;;;4.78;;
56653;SDS011;45096;52.302;4.634;2024-02-26T07:56:29;5.30;;;4.80;;
56653;SDS011;45096;52.302;4.634;2024-02-26T07:58:55;7.85;;;4.28;;
56653;SDS011;45096;52.302;4.634;2024-02-26T08:01:21;7.85;;;5.13;;
56653;SDS011;45096;52.302;4.634;2024-02-26T08:03:47;5.10;;;3.97;;
56653;SDS011;45096;52.302;4.634;2024-02-26T08:06:12;7.75;;;4.93;;
56653;SDS011;45096;52.302;4.634;2024-02-26T08:08:37;4.95;;;3.92;;
56653;SDS011;45096;52.302;4.634;2024-02-26T08:11:03;6.88;;;4.65;;
56653;SDS011;45096;52.302;4.634;2024-02-26T08:13:29;5.53;;;4.68;;
56653;SDS011;45096;52.302;4.634;2024-02-26T08:15:54;5.75;;;4.22;;
56653;SDS011;45096;52.302;4.634;2024-02-26T08:18:21;6.75;;;4.20;;
56653;SDS011;45096;52.302;4.634;2024-02-26T08:20:46;6.97;;;4.25;;
56653;SDS011;45096;52.302;4.634;2024-02-26T08:23:11;5.57;;;3.92;;
56653;SDS011;45096;52.302;4.634;2024-02-26T08:25:37;3.90;;;3.60;;
56653;SDS011;45096;52.302;4.634;2024-02-26T08:28:02;5.20;;;4.03;;
56653;SDS011;45096;52.302;4.634;2024-02-26T08:30:28;7.10;;;4.32;;
56653;SDS011;45096;52.302;4.634;2024-02-26T08:32:54;3.92;;;3.58;;
56653;SDS011;45096;52.302;4.634;2024-02-26T08:35:20;4.38;;;3.97;;
56653;SDS011;45096;52.302;4.634;2024-02-26T08:37:46;6.18;;;4.30;;
56653;SDS011;45096;52.302;4.634;2024-02-26T08:40:11;4.28;;;3.88;;
56653;SDS011;45096;52.302;4.634;2024-02-26T08:42:37;8.07;;;4.10;;
56653;SDS011;45096;52.302;4.634;2024-02-26T08:45:02;4.05;;;3.67;;
56653;SDS011;45096;52.302;4.634;2024-02-26T08:47:28;4.82;;;3.92;;
56653;SDS011;45096;52.302;4.634;2024-02-26T08:49:54;4.45;;;3.97;;
56653;SDS011;45096;52.302;4.634;2024-02-26T08:52:20;6.55;;;3.70;;
56653;SDS011;45096;52.302;4.634;2024-02-26T08:54:46;6.00;;;4.68;;
56653;SDS011;45096;52.302;4.634;2024-02-26T08:57:11;4.50;;;4.10;;
56653;SDS011;45096;52.302;4.634;2024-02-26T08:59:37;4.05;;;3.30;;
56653;SDS011;45096;52.302;4.634;2024-02-26T09:02:02;4.63;;;3.90;;
56653;SDS011;45096;52.302;4.634;2024-02-26T09:04:28;5.35;;;3.83;;
56653;SDS011;45096;52.302;4.634;2024-02-26T09:06:53;5.70;;;3.70;;
56653;SDS011;45096;52.302;4.634;2024-02-26T09:09:20;3.20;;;3.00;;
56653;SDS011;45096;52.302;4.634;2024-02-26T09:11:45;4.55;;;3.70;;
56653;SDS011;45096;52.302;4.634;2024-02-26T09:14:11;4.22;;;3.88;;
56653;SDS011;45096;52.302;4.634;2024-02-26T09:16:36;4.70;;;3.58;;
56653;SDS011;45096;52.302;4.634;2024-02-26T09:19:02;3.92;;;3.35;;
56653;SDS011;45096;52.302;4.634;2024-02-26T09:21:27;3.47;;;3.17;;
56653;SDS011;45096;52.302;4.634;2024-02-26T09:23:53;7.68;;;3.25;;
56653;SDS011;45096;52.302;4.634;2024-02-26T09:26:20;4.60;;;3.78;;
56653;SDS011;45096;52.302;4.634;2024-02-26T09:28:45;3.35;;;3.15;;
56653;SDS011;45096;52.302;4.634;2024-02-26T09:31:11;4.25;;;3.38;;
56653;SDS011;45096;52.302;4.634;2024-02-26T09:33:36;3.97;;;3.67;;
56653;SDS011;45096;52.302;4.634;2024-02-26T09:36:02;3.78;;;3.45;;
56653;SDS011;45096;52.302;4.634;2024-02-26T09:38:28;4.20;;;3.45;;
56653;SDS011;45096;52.302;4.634;2024-02-26T09:40:54;4.18;;;3.85;;
56653;SDS011;45096;52.302;4.634;2024-02-26T09:43:21;3.95;;;3.55;;
56653;SDS011;45096;52.302;4.634;2024-02-26T09:45:47;4.00;;;3.70;;
56653;SDS011;45096;52.302;4.634;2024-02-26T09:48:12;5.63;;;3.30;;
56653;SDS011;45096;52.302;4.634;2024-02-26T09:50:40;5.70;;;4.05;;
56653;SDS011;45096;52.302;4.634;2024-02-26T09:53:06;3.47;;;3.10;;
56653;SDS011;45096;52.302;4.634;2024-02-26T09:55:33;3.53;;;3.22;;
56653;SDS011;45096;52.302;4.634;2024-02-26T09:57:58;5.47;;;4.05;;
56653;SDS011;45096;52.302;4.634;2024-02-26T10:00:25;5.28;;;3.47;;
56653;SDS011;45096;52.302;4.634;2024-02-26T10:02:52;5.40;;;3.15;;
56653;SDS011;45096;52.302;4.634;2024-02-26T10:05:19;4.63;;;3.97;;
56653;SDS011;45096;52.302;4.634;2024-02-26T10:07:44;3.60;;;3.30;;
56653;SDS011;45096;52.302;4.634;2024-02-26T10:10:10;5.50;;;3.63;;
56653;SDS011;45096;52.302;4.634;2024-02-26T10:12:35;7.13;;;3.95;;
56653;SDS011;45096;52.302;4.634;2024-02-26T10:15:01;5.00;;;3.83;;
56653;SDS011;45096;52.302;4.634;2024-02-26T10:17:28;3.65;;;3.35;;
56653;SDS011;45096;52.302;4.634;2024-02-26T10:19:53;4.35;;;3.78;;
56653;SDS011;45096;52.302;4.634;2024-02-26T10:22:19;4.45;;;3.65;;
56653;SDS011;45096;52.302;4.634;2024-02-26T10:24:46;6.25;;;4.13;;
56653;SDS011;45096;52.302;4.634;2024-02-26T10:27:12;5.32;;;3.47;;
56653;SDS011;45096;52.302;4.634;2024-02-26T10:29:37;3.70;;;3.38;;
56653;SDS011;45096;52.302;4.634;2024-02-26T10:32:03;4.05;;;3.63;;
56653;SDS011;45096;52.302;4.634;2024-02-26T10:34:30;4.68;;;4.25;;
56653;SDS011;45096;52.302;4.634;2024-02-26T10:36:56;3.75;;;3.45;;
56653;SDS011;45096;52.302;4.634;2024-02-26T10:39:21;3.72;;;3.42;;
56653;SDS011;45096;52.302;4.634;2024-02-26T10:41:47;3.42;;;3.13;;
56653;SDS011;45096;52.302;4.634;2024-02-26T10:44:12;3.78;;;3.47;;
56653;SDS011;45096;52.302;4.634;2024-02-26T10:46:38;3.70;;;3.40;;
56653;SDS011;45096;52.302;4.634;2024-02-26T10:49:03;4.70;;;3.42;;
56653;SDS011;45096;52.302;4.634;2024-02-26T10:51:31;4.25;;;3.25;;
56653;SDS011;45096;52.302;4.634;2024-02-26T10:53:57;4.05;;;3.45;;
56653;SDS011;45096;52.302;4.634;2024-02-26T10:56:24;3.38;;;3.00;;
56653;SDS011;45096;52.302;4.634;2024-02-26T10:58:50;3.20;;;2.75;;
56653;SDS011;45096;52.302;4.634;2024-02-26T11:01:15;3.45;;;3.15;;
56653;SDS011;45096;52.302;4.634;2024-02-26T11:03:41;3.97;;;3.65;;
56653;SDS011;45096;52.302;4.634;2024-02-26T11:06:06;2.95;;;2.75;;
56653;SDS011;45096;52.302;4.634;2024-02-26T11:08:34;3.90;;;3.60;;
56653;SDS011;45096;52.302;4.634;2024-02-26T11:11:00;2.72;;;2.58;;
56653;SDS011;45096;52.302;4.634;2024-02-26T11:13:26;4.47;;;3.40;;
56653;SDS011;45096;52.302;4.634;2024-02-26T11:15:53;4.60;;;2.83;;
56653;SDS011;45096;52.302;4.634;2024-02-26T11:18:19;4.40;;;2.58;;
56653;SDS011;45096;52.302;4.634;2024-02-26T11:20:46;3.40;;;3.10;;
56653;SDS011;45096;52.302;4.634;2024-02-26T11:23:13;2.88;;;2.67;;
56653;SDS011;45096;52.302;4.634;2024-02-26T11:25:40;2.67;;;2.47;;
56653;SDS011;45096;52.302;4.634;2024-02-26T11:28:06;4.32;;;2.75;;
56653;SDS011;45096;52.302;4.634;2024-02-26T11:30:35;3.00;;;2.75;;
56653;SDS011;45096;52.302;4.634;2024-02-26T11:33:03;3.15;;;2.50;;
56653;SDS011;45096;52.302;4.634;2024-02-26T11:35:29;2.47;;;2.22;;
56653;SDS011;45096;52.302;4.634;2024-02-26T11:37:55;4.75;;;2.50;;
56653;SDS011;45096;52.302;4.634;2024-02-26T11:40:22;2.60;;;2.30;;
56653;SDS011;45096;52.302;4.634;2024-02-26T11:42:50;2.50;;;2.30;;
56653;SDS011;45096;52.302;4.634;2024-02-26T11:48:15;2.65;;;2.45;;
56653;SDS011;45096;52.302;4.634;2024-02-26T11:50:41;2.90;;;2.60;;
56653;SDS011;45096;52.302;4.634;2024-02-26T11:53:23;3.13;;;2.40;;
56653;SDS011;45096;52.302;4.634;2024-02-26T11:58:46;2.42;;;2.33;;
56653;SDS011;45096;52.302;4.634;2024-02-26T12:04:02;2.60;;;2.05;;
56653;SDS011;45096;52.302;4.634;2024-02-26T12:06:29;2.55;;;2.28;;
56653;SDS011;45096;52.302;4.634;2024-02-26T12:08:55;1.98;;;1.83;;
56653;SDS011;45096;52.302;4.634;2024-02-26T12:11:21;2.83;;;2.47;;
56653;SDS011;45096;52.302;4.634;2024-02-26T12:13:48;2.95;;;2.65;;
56653;SDS011;45096;52.302;4.634;2024-02-26T12:16:13;2.72;;;2.53;;
56653;SDS011;45096;52.302;4.634;2024-02-26T12:19:03;2.78;;;2.58;;
56653;SDS011;45096;52.302;4.634;2024-02-26T12:21:29;3.40;;;2.92;;
56653;SDS011;45096;52.302;4.634;2024-02-26T12:23:54;2.67;;;2.47;;
56653;SDS011;45096;52.302;4.634;2024-02-26T12:26:20;2.60;;;2.40;;
56653;SDS011;45096;52.302;4.634;2024-02-26T12:28:47;2.58;;;2.40;;
56653;SDS011;45096;52.302;4.634;2024-02-26T12:31:13;5.97;;;3.63;;
56653;SDS011;45096;52.302;4.634;2024-02-26T12:33:38;3.25;;;2.53;;
56653;SDS011;45096;52.302;4.634;2024-02-26T12:36:04;3.17;;;2.80;;
56653;SDS011;45096;52.302;4.634;2024-02-26T12:38:30;2.33;;;2.13;;
56653;SDS011;45096;52.302;4.634;2024-02-26T12:40:55;5.55;;;2.30;;
56653;SDS011;45096;52.302;4.634;2024-02-26T12:43:20;3.22;;;2.35;;
56653;SDS011;45096;52.302;4.634;2024-02-26T12:45:48;2.47;;;2.28;;
56653;SDS011;45096;52.302;4.634;2024-02-26T12:48:13;3.33;;;2.50;;
56653;SDS011;45096;52.302;4.634;2024-02-26T12:50:38;5.80;;;2.42;;
56653;SDS011;45096;52.302;4.634;2024-02-26T12:53:04;4.40;;;3.17;;
56653;SDS011;45096;52.302;4.634;2024-02-26T12:55:30;3.92;;;2.33;;
56653;SDS011;45096;52.302;4.634;2024-02-26T12:57:57;4.97;;;2.53;;
56653;SDS011;45096;52.302;4.634;2024-02-26T13:00:24;4.55;;;2.65;;
56653;SDS011;45096;52.302;4.634;2024-02-26T13:02:53;5.05;;;2.58;;
56653;SDS011;45096;52.302;4.634;2024-02-26T13:05:19;3.08;;;2.53;;
56653;SDS011;45096;52.302;4.634;2024-02-26T13:07:45;4.10;;;2.60;;
56653;SDS011;45096;52.302;4.634;2024-02-26T13:10:11;2.90;;;2.50;;
56653;SDS011;45096;52.302;4.634;2024-02-26T13:12:36;2.53;;;2.30;;
56653;SDS011;45096;52.302;4.634;2024-02-26T13:15:02;2.58;;;2.38;;
56653;SDS011;45096;52.302;4.634;2024-02-26T13:17:31;4.20;;;2.20;;
56653;SDS011;45096;52.302;4.634;2024-02-26T13:19:58;2.65;;;2.25;;
56653;SDS011;45096;52.302;4.634;2024-02-26T13:22:23;4.10;;;2.33;;
56653;SDS011;45096;52.302;4.634;2024-02-26T13:24:55;2.42;;;2.22;;
56653;SDS011;45096;52.302;4.634;2024-02-26T13:27:21;2.50;;;2.30;;
56653;SDS011;45096;52.302;4.634;2024-02-26T13:29:47;2.63;;;2.42;;
56653;SDS011;45096;52.302;4.634;2024-02-26T13:32:12;3.22;;;2.45;;
56653;SDS011;45096;52.302;4.634;2024-02-26T13:34:38;2.85;;;2.65;;
56653;SDS011;45096;52.302;4.634;2024-02-26T13:37:05;5.75;;;2.58;;
56653;SDS011;45096;52.302;4.634;2024-02-26T13:39:30;2.30;;;2.10;;
56653;SDS011;45096;52.302;4.634;2024-02-26T13:41:56;2.10;;;1.90;;
56653;SDS011;45096;52.302;4.634;2024-02-26T13:44:21;4.55;;;2.40;;
56653;SDS011;45096;52.302;4.634;2024-02-26T13:46:47;2.88;;;2.10;;
56653;SDS011;45096;52.302;4.634;2024-02-26T13:49:13;2.58;;;2.35;;
56653;SDS011;45096;52.302;4.634;2024-02-26T13:51:38;2.67;;;2.38;;
56653;SDS011;45096;52.302;4.634;2024-02-26T13:54:05;4.78;;;2.58;;
56653;SDS011;45096;52.302;4.634;2024-02-26T13:56:30;3.95;;;2.78;;
56653;SDS011;45096;52.302;4.634;2024-02-26T13:58:56;2.70;;;2.50;;
56653;SDS011;45096;52.302;4.634;2024-02-26T14:01:21;4.18;;;2.47;;
56653;SDS011;45096;52.302;4.634;2024-02-26T14:03:47;4.57;;;2.85;;
56653;SDS011;45096;52.302;4.634;2024-02-26T14:06:12;5.20;;;3.45;;
56653;SDS011;45096;52.302;4.634;2024-02-26T14:08:38;3.97;;;2.58;;
56653;SDS011;45096;52.302;4.634;2024-02-26T14:11:04;3.53;;;3.03;;
56653;SDS011;45096;52.302;4.634;2024-02-26T14:13:30;3.55;;;3.22;;
56653;SDS011;45096;52.302;4.634;2024-02-26T14:15:55;3.20;;;2.90;;
56653;SDS011;45096;52.302;4.634;2024-02-26T14:18:21;4.00;;;3.33;;
56653;SDS011;45096;52.302;4.634;2024-02-26T14:20:46;5.65;;;3.45;;
56653;SDS011;45096;52.302;4.634;2024-02-26T14:23:12;4.65;;;3.13;;
56653;SDS011;45096;52.302;4.634;2024-02-26T14:25:37;7.10;;;3.38;;
56653;SDS011;45096;52.302;4.634;2024-02-26T14:28:04;6.05;;;3.33;;
56653;SDS011;45096;52.302;4.634;2024-02-26T14:30:30;4.97;;;3.25;;
56653;SDS011;45096;52.302;4.634;2024-02-26T14:32:55;4.13;;;3.28;;
56653;SDS011;45096;52.302;4.634;2024-02-26T14:35:21;3.45;;;3.15;;
56653;SDS011;45096;52.302;4.634;2024-02-26T14:37:46;3.70;;;3.38;;
56653;SDS011;45096;52.302;4.634;2024-02-26T14:40:12;6.50;;;3.30;;